Time;durP1;ratioP1;P1;durP2;ratioP2;P2;SDS_P1;SDS_P2;PMS_P1;PMS_P2;Temp;Humidity;BMP_temperature;BMP_pressure;BME280_temperature;BME280_humidity;BME280_pressure;Samples;Min_cycle;Max_cycle;Signal;HPM_P1;HPM_P2
2023/07/22 00:02:23;;;;;;;8.77;3.22;;;13.60;99.90;;;;;;5088192;28;20086;-62
2023/07/22 00:04:50;;;;;;;4.15;2.72;;;13.60;99.90;;;;;;5085632;28;20095;-62
2023/07/22 00:07:16;;;;;;;4.43;3.10;;;13.50;99.90;;;;;;5065946;28;20127;-62
2023/07/22 00:09:43;;;;;;;5.88;3.20;;;13.50;99.90;;;;;;5075491;28;20510;-63
2023/07/22 00:12:09;;;;;;;5.35;2.50;;;13.50;99.90;;;;;;5083160;28;20547;-62
2023/07/22 00:14:40;;;;;;;4.15;3.03;;;13.40;99.90;;;;;;5090315;28;20052;-62
2023/07/22 00:17:06;;;;;;;6.75;3.20;;;13.40;99.90;;;;;;5088184;28;20067;-62
2023/07/22 00:19:32;;;;;;;2.90;2.22;;;13.40;99.90;;;;;;5076091;28;20471;-61
2023/07/22 00:21:58;;;;;;;4.22;3.00;;;13.40;99.90;;;;;;5078504;28;20570;-61
2023/07/22 00:24:24;;;;;;;3.25;1.73;;;13.40;99.90;;;;;;5099488;28;20135;-63
2023/07/22 00:26:49;;;;;;;4.72;1.20;;;13.40;99.90;;;;;;5082263;28;20055;-62
2023/07/22 00:29:16;;;;;;;1.77;1.50;;;13.40;99.90;;;;;;5101349;28;20032;-62
2023/07/22 00:31:42;;;;;;;4.90;1.33;;;13.50;99.90;;;;;;5089890;28;20494;-62
2023/07/22 00:34:08;;;;;;;1.63;1.38;;;13.50;99.90;;;;;;5088175;28;20050;-62
2023/07/22 00:36:34;;;;;;;4.68;1.80;;;13.50;99.90;;;;;;5073888;28;20502;-62
2023/07/22 00:39:01;;;;;;;3.35;1.90;;;13.50;99.90;;;;;;5086704;28;20094;-62
2023/07/22 00:41:27;;;;;;;5.05;2.10;;;13.50;99.90;;;;;;5088562;28;20537;-62
2023/07/22 00:43:53;;;;;;;2.20;1.77;;;13.50;99.90;;;;;;5089108;28;20052;-62
2023/07/22 00:46:18;;;;;;;3.00;2.13;;;13.50;99.90;;;;;;5088506;28;20040;-62
2023/07/22 00:48:45;;;;;;;1.83;1.73;;;13.50;99.90;;;;;;5088191;28;20404;-62
2023/07/22 00:51:11;;;;;;;1.92;1.75;;;13.40;99.90;;;;;;5077694;28;20076;-62
2023/07/22 00:53:36;;;;;;;3.50;1.60;;;13.40;99.90;;;;;;5080198;28;20086;-62
2023/07/22 00:56:03;;;;;;;5.82;2.13;;;13.40;99.90;;;;;;5087838;28;20135;-62
2023/07/22 00:58:28;;;;;;;4.90;2.20;;;13.30;99.90;;;;;;5089419;28;20494;-62
2023/07/22 01:00:54;;;;;;;5.53;2.03;;;13.30;99.90;;;;;;5088329;28;20032;-62
2023/07/22 01:03:20;;;;;;;4.28;2.17;;;13.30;99.90;;;;;;5086921;28;20663;-62
2023/07/22 01:05:48;;;;;;;2.50;2.30;;;13.30;99.90;;;;;;5089066;28;20048;-62
2023/07/22 01:08:14;;;;;;;5.60;2.08;;;13.20;99.90;;;;;;5087978;28;20043;-62
2023/07/22 01:10:40;;;;;;;5.97;2.47;;;13.20;99.90;;;;;;5074564;28;20036;-62
2023/07/22 01:13:06;;;;;;;6.45;2.78;;;13.10;99.90;;;;;;5087385;28;20051;-62
2023/07/22 01:15:33;;;;;;;6.45;3.53;;;13.10;99.90;;;;;;5089000;28;20054;-62
2023/07/22 01:18:01;;;;;;;7.45;2.67;;;13.10;99.90;;;;;;5087483;28;20081;-62
2023/07/22 01:20:30;;;;;;;5.82;3.05;;;13.10;99.90;;;;;;5087441;28;20048;-62
2023/07/22 01:22:56;;;;;;;4.28;3.40;;;13.00;99.90;;;;;;5088449;28;20482;-61
2023/07/22 01:25:23;;;;;;;4.18;2.92;;;13.00;99.90;;;;;;5086002;28;20040;-62
2023/07/22 01:27:51;;;;;;;4.80;3.30;;;12.90;99.90;;;;;;5088623;28;20514;-62
2023/07/22 01:30:19;;;;;;;5.00;2.77;;;12.90;99.90;;;;;;5087380;28;20178;-62
2023/07/22 01:32:45;;;;;;;6.88;3.30;;;12.90;99.90;;;;;;5089032;28;20062;-62
2023/07/22 01:35:11;;;;;;;6.90;3.05;;;12.90;99.90;;;;;;5085956;28;20070;-62
2023/07/22 01:37:37;;;;;;;5.15;3.28;;;12.80;99.90;;;;;;5087370;28;20681;-62
2023/07/22 01:40:11;;;;;;;5.85;3.20;;;12.70;99.90;;;;;;5088189;28;20048;-62
2023/07/22 01:42:42;;;;;;;4.25;2.78;;;12.70;99.90;;;;;;5075306;28;20138;-61
2023/07/22 01:45:08;;;;;;;5.72;3.13;;;12.70;99.90;;;;;;5087412;28;20059;-62
2023/07/22 01:47:38;;;;;;;7.22;2.90;;;12.70;99.90;;;;;;5087112;28;20040;-62
2023/07/22 01:50:08;;;;;;;8.65;3.42;;;12.60;99.90;;;;;;5088354;28;20090;-62
2023/07/22 01:52:34;;;;;;;;;;;12.60;99.90;;;;;;5069080;28;20062;-62
2023/07/22 01:55:00;;;;;;;3.40;2.33;;;12.60;99.90;;;;;;5086660;28;19923;-62
2023/07/22 01:57:25;;;;;;;7.60;2.78;;;12.50;99.90;;;;;;5087320;28;20048;-62
2023/07/22 01:59:51;;;;;;;4.43;3.03;;;12.50;99.90;;;;;;5087828;28;20044;-62
2023/07/22 02:02:17;;;;;;;6.68;3.33;;;12.50;99.90;;;;;;5086306;28;20052;-62
2023/07/22 02:04:43;;;;;;;4.55;3.03;;;12.50;99.90;;;;;;5085516;28;20044;-62
2023/07/22 02:07:09;;;;;;;8.40;3.08;;;12.60;99.90;;;;;;5086694;28;20090;-62
2023/07/22 02:09:35;;;;;;;5.95;3.17;;;12.50;99.90;;;;;;5079927;28;20040;-61
2023/07/22 02:12:00;;;;;;;5.60;3.13;;;12.50;99.90;;;;;;5079255;28;20123;-61
2023/07/22 02:14:26;;;;;;;4.55;2.85;;;12.40;99.90;;;;;;5068313;28;20036;-61
2023/07/22 02:16:52;;;;;;;7.00;2.60;;;12.40;99.90;;;;;;5087970;28;20401;-62
2023/07/22 02:19:18;;;;;;;5.43;2.72;;;12.50;99.90;;;;;;5087401;28;20051;-62
2023/07/22 02:21:43;;;;;;;7.30;2.78;;;12.40;99.90;;;;;;5085456;28;20489;-61
2023/07/22 02:24:10;;;;;;;4.07;2.53;;;12.40;99.90;;;;;;5087575;28;20127;-62
2023/07/22 02:26:36;;;;;;;3.80;2.60;;;12.40;99.90;;;;;;5085474;28;20062;-62
2023/07/22 02:29:02;;;;;;;6.68;2.50;;;12.30;99.90;;;;;;5088185;28;20482;-62
2023/07/22 02:31:28;;;;;;;6.88;3.03;;;12.30;99.90;;;;;;5086092;28;20123;-62
2023/07/22 02:33:53;;;;;;;4.07;2.72;;;12.20;99.90;;;;;;5086814;28;20158;-62
2023/07/22 02:36:19;;;;;;;7.03;2.38;;;12.10;99.90;;;;;;5086492;28;20115;-61
2023/07/22 02:38:45;;;;;;;3.60;2.58;;;12.20;99.90;;;;;;5068809;28;20105;-61
2023/07/22 02:41:11;;;;;;;6.00;2.97;;;12.10;99.90;;;;;;5087612;28;20032;-62
2023/07/22 02:43:36;;;;;;;3.80;2.42;;;12.10;99.90;;;;;;5086662;28;20043;-62
2023/07/22 02:46:03;;;;;;;4.70;3.03;;;12.10;99.90;;;;;;5087630;28;20059;-61
2023/07/22 02:48:31;;;;;;;4.68;2.65;;;12.10;99.90;;;;;;5085829;28;20036;-62
2023/07/22 02:51:17;;;;;;;4.38;2.28;;;12.10;99.90;;;;;;5086085;28;20063;-62
2023/07/22 02:53:44;;;;;;;6.35;1.90;;;12.10;99.90;;;;;;5085172;28;20052;-62
2023/07/22 02:56:11;;;;;;;6.68;2.42;;;12.00;99.90;;;;;;5086728;28;20054;-62
2023/07/22 02:58:36;;;;;;;5.38;2.50;;;12.00;99.90;;;;;;5085491;28;20406;-62
2023/07/22 03:01:04;;;;;;;4.78;2.40;;;12.00;99.90;;;;;;5085702;28;20097;-61
2023/07/22 03:03:32;;;;;;;5.20;2.70;;;12.00;99.90;;;;;;5086933;28;20105;-62
2023/07/22 03:05:59;;;;;;;3.70;2.35;;;12.00;99.90;;;;;;5084325;28;20554;-61
2023/07/22 03:08:25;;;;;;;5.95;2.20;;;12.00;99.90;;;;;;5087220;28;20115;-62
2023/07/22 03:10:51;;;;;;;7.88;2.70;;;12.00;99.90;;;;;;5083399;28;20119;-61
2023/07/22 03:13:17;;;;;;;2.72;2.50;;;11.90;99.90;;;;;;5085999;28;20071;-61
2023/07/22 03:15:43;;;;;;;3.85;2.38;;;11.90;99.90;;;;;;5086940;28;20517;-62
2023/07/22 03:18:09;;;;;;;2.80;1.95;;;11.90;99.90;;;;;;5086447;28;20040;-61
2023/07/22 03:20:36;;;;;;;5.65;2.20;;;11.80;99.90;;;;;;5086779;28;20044;-61
2023/07/22 03:23:03;;;;;;;3.55;2.55;;;11.80;99.90;;;;;;5067470;28;20044;-62
2023/07/22 03:25:29;;;;;;;4.13;2.47;;;11.80;99.90;;;;;;5080907;28;20046;-61
2023/07/22 03:27:55;;;;;;;5.50;2.53;;;11.80;99.90;;;;;;5080716;28;20037;-62
2023/07/22 03:30:22;;;;;;;5.65;2.50;;;11.70;99.90;;;;;;5055180;28;20040;-61
2023/07/22 03:32:50;;;;;;;4.22;2.25;;;11.70;99.90;;;;;;5066895;28;20118;-62
2023/07/22 03:35:16;;;;;;;5.75;2.05;;;11.70;99.90;;;;;;5063991;28;20084;-62
2023/07/22 03:37:43;;;;;;;5.72;2.47;;;11.70;99.90;;;;;;5073521;28;20059;-61
2023/07/22 03:42:41;;;;;;;9.40;2.58;;;11.70;99.90;;;;;;5072303;28;20584;-62
2023/07/22 03:45:09;;;;;;;8.80;2.42;;;11.70;99.90;;;;;;5067667;28;20415;-62
2023/07/22 03:47:35;;;;;;;2.92;2.05;;;11.60;99.90;;;;;;5071905;28;20499;-62
2023/07/22 03:50:02;;;;;;;10.20;2.35;;;11.60;99.90;;;;;;5066414;28;20071;-61
2023/07/22 03:52:27;;;;;;;5.90;2.50;;;11.60;99.90;;;;;;5065414;28;20487;-61
2023/07/22 03:54:53;;;;;;;3.97;2.15;;;11.60;99.90;;;;;;5070864;28;20040;-61
2023/07/22 03:57:19;;;;;;;4.00;2.35;;;11.70;99.90;;;;;;5071219;28;20048;-62
2023/07/22 03:59:45;;;;;;;4.43;2.33;;;11.60;99.90;;;;;;5066587;28;20058;-62
2023/07/22 04:02:10;;;;;;;3.00;2.35;;;11.70;99.90;;;;;;5074643;28;20074;-61
2023/07/22 04:04:36;;;;;;;4.70;2.10;;;11.70;99.90;;;;;;5073338;28;20132;-62
2023/07/22 04:07:02;;;;;;;3.70;2.38;;;11.70;99.90;;;;;;5069251;28;20158;-62
2023/07/22 04:09:27;;;;;;;2.33;2.00;;;11.80;99.90;;;;;;5067760;28;20045;-61
2023/07/22 04:11:53;;;;;;;4.13;2.05;;;11.80;99.90;;;;;;5063855;28;20047;-61
2023/07/22 04:14:19;;;;;;;5.43;2.13;;;11.80;99.90;;;;;;5087188;28;20046;-62
2023/07/22 04:16:45;;;;;;;4.68;2.30;;;11.80;99.90;;;;;;5090259;28;20161;-61
2023/07/22 04:19:11;;;;;;;3.17;2.20;;;11.80;99.90;;;;;;5088654;28;20470;-61
2023/07/22 04:21:36;;;;;;;3.42;2.28;;;11.90;99.90;;;;;;5088525;28;20517;-61
2023/07/22 04:24:03;;;;;;;2.22;2.00;;;11.90;99.90;;;;;;5088976;28;20123;-62
2023/07/22 04:26:29;;;;;;;4.53;2.25;;;12.00;99.90;;;;;;5088202;28;20085;-62
2023/07/22 04:28:56;;;;;;;7.85;2.38;;;12.00;99.90;;;;;;5089769;28;20480;-61
2023/07/22 04:31:21;;;;;;;7.28;2.47;;;12.10;99.90;;;;;;5083783;28;20442;-61
2023/07/22 04:33:47;;;;;;;5.38;3.13;;;12.10;99.90;;;;;;5079466;28;20055;-61
2023/07/22 04:36:13;;;;;;;2.95;2.25;;;12.20;99.90;;;;;;5051746;28;20490;-61
2023/07/22 04:38:39;;;;;;;4.65;2.30;;;12.20;99.90;;;;;;5089387;28;20079;-61
2023/07/22 04:41:04;;;;;;;5.88;2.70;;;12.30;99.90;;;;;;5088691;28;20455;-61
2023/07/22 04:43:32;;;;;;;6.90;2.65;;;12.30;99.90;;;;;;5089697;28;20394;-61
2023/07/22 04:45:58;;;;;;;5.25;2.28;;;12.40;99.90;;;;;;5088265;28;20055;-61
2023/07/22 04:48:24;;;;;;;2.58;2.25;;;12.40;99.90;;;;;;5088265;28;20055;-61
2023/07/22 04:50:50;;;;;;;5.15;3.15;;;12.50;99.90;;;;;;5089218;28;20048;-61
2023/07/22 04:53:17;;;;;;;3.10;2.53;;;12.60;99.90;;;;;;5087340;28;20177;-61
2023/07/22 04:55:43;;;;;;;7.25;2.95;;;12.70;99.90;;;;;;5089420;28;20036;-61
2023/07/22 04:58:10;;;;;;;2.65;2.42;;;12.80;99.90;;;;;;5086484;28;20498;-61
2023/07/22 05:00:39;;;;;;;5.90;2.47;;;12.80;99.90;;;;;;5071290;28;20120;-61
2023/07/22 05:03:05;;;;;;;5.78;2.90;;;13.00;99.90;;;;;;5088809;28;20123;-61
2023/07/22 05:05:32;;;;;;;3.92;2.40;;;13.00;99.90;;;;;;5089047;28;20057;-61
2023/07/22 05:07:57;;;;;;;5.47;2.28;;;13.10;99.90;;;;;;5087813;28;20058;-61
2023/07/22 05:10:23;;;;;;;11.13;3.95;;;13.20;99.90;;;;;;5074747;28;20033;-61
2023/07/22 05:12:49;;;;;;;3.70;2.45;;;13.20;99.90;;;;;;5087733;28;20047;-61
2023/07/22 05:15:15;;;;;;;7.00;2.67;;;13.20;99.90;;;;;;5088170;28;20356;-61
2023/07/22 05:17:41;;;;;;;4.43;2.58;;;13.30;99.90;;;;;;5088308;28;20064;-61
2023/07/22 05:20:10;;;;;;;9.32;3.50;;;13.40;99.90;;;;;;5087862;28;20102;-61
2023/07/22 05:22:37;;;;;;;6.97;2.95;;;13.40;99.90;;;;;;5074266;28;20397;-61
2023/07/22 05:25:04;;;;;;;3.45;2.85;;;13.50;99.90;;;;;;5086988;28;20048;-61
2023/07/22 05:27:30;;;;;;;5.47;3.15;;;13.50;99.90;;;;;;5077847;28;20441;-61
2023/07/22 05:29:55;;;;;;;7.43;3.40;;;13.50;99.90;;;;;;5073942;28;20028;-61
2023/07/22 05:32:21;;;;;;;5.97;3.17;;;13.60;99.90;;;;;;5086445;28;20048;-61
2023/07/22 05:34:47;;;;;;;7.80;3.20;;;13.60;99.90;;;;;;5088283;28;20130;-61
2023/07/22 05:37:13;;;;;;;6.28;3.42;;;13.60;99.90;;;;;;5087466;28;20081;-61
2023/07/22 05:39:38;;;;;;;6.70;3.30;;;13.60;99.90;;;;;;5071402;28;20575;-61
2023/07/22 05:42:04;;;;;;;6.47;3.08;;;13.70;99.90;;;;;;5075411;28;20083;-61
2023/07/22 05:44:30;;;;;;;10.02;3.80;;;13.80;99.90;;;;;;5088567;28;20050;-61
2023/07/22 05:46:56;;;;;;;7.30;3.15;;;13.80;99.90;;;;;;5088045;28;20044;-61
2023/07/22 05:49:22;;;;;;;5.97;3.13;;;13.90;99.90;;;;;;5087246;28;20393;-61
2023/07/22 05:51:47;;;;;;;6.47;3.25;;;13.90;99.90;;;;;;5087905;28;20047;-61
2023/07/22 05:54:14;;;;;;;5.07;2.70;;;13.90;99.90;;;;;;5087512;28;20078;-61
2023/07/22 05:56:41;;;;;;;8.50;3.15;;;14.00;99.90;;;;;;5086771;28;20048;-61
2023/07/22 05:59:07;;;;;;;7.80;3.50;;;14.00;99.90;;;;;;5086616;28;20054;-61
2023/07/22 06:01:33;;;;;;;5.13;3.33;;;14.10;99.90;;;;;;5080513;28;20078;-61
2023/07/22 06:03:58;;;;;;;6.13;3.00;;;14.10;99.90;;;;;;5073475;28;20044;-61
2023/07/22 06:06:24;;;;;;;6.00;3.20;;;14.30;99.90;;;;;;5087699;28;20032;-61
2023/07/22 06:08:50;;;;;;;5.30;2.97;;;14.30;99.90;;;;;;5085995;28;20039;-61
2023/07/22 06:11:15;;;;;;;9.32;3.50;;;14.30;99.90;;;;;;5085073;28;20402;-61
2023/07/22 06:13:41;;;;;;;6.43;3.40;;;14.40;99.90;;;;;;5086750;28;20050;-61
2023/07/22 06:16:07;;;;;;;5.50;3.38;;;14.40;99.90;;;;;;5086351;28;20052;-61
2023/07/22 06:18:33;;;;;;;6.28;3.33;;;14.50;99.90;;;;;;5088032;28;20070;-61
2023/07/22 06:20:59;;;;;;;3.80;2.92;;;14.50;99.90;;;;;;5086339;28;20127;-61
2023/07/22 06:23:24;;;;;;;5.45;3.28;;;14.60;99.90;;;;;;5069415;28;20150;-61
2023/07/22 06:25:50;;;;;;;7.45;3.80;;;14.70;99.90;;;;;;5086912;28;20043;-62
2023/07/22 06:28:16;;;;;;;7.50;3.85;;;14.80;99.90;;;;;;5087027;28;20489;-61
2023/07/22 06:30:42;;;;;;;7.75;3.50;;;14.80;99.90;;;;;;5084297;28;20046;-61
2023/07/22 06:33:07;;;;;;;7.65;4.05;;;14.90;99.90;;;;;;5084814;28;20509;-61
2023/07/22 06:35:33;;;;;;;8.98;4.00;;;14.90;99.90;;;;;;5087717;28;20132;-61
2023/07/22 06:37:59;;;;;;;7.93;4.38;;;15.10;99.90;;;;;;5085206;28;20064;-61
2023/07/22 06:40:25;;;;;;;5.45;3.85;;;15.30;99.90;;;;;;5087852;28;20576;-62
2023/07/22 06:42:51;;;;;;;7.32;3.97;;;15.40;99.90;;;;;;5081175;28;20076;-61
2023/07/22 06:45:17;;;;;;;9.25;4.28;;;15.50;99.90;;;;;;5083958;28;20102;-61
2023/07/22 06:47:43;;;;;;;7.28;4.55;;;15.60;99.90;;;;;;5080029;28;20048;-61
2023/07/22 06:50:09;;;;;;;7.13;4.75;;;15.70;99.90;;;;;;5084567;28;20044;-61
2023/07/22 06:52:35;;;;;;;6.25;4.80;;;15.80;99.90;;;;;;5087851;28;20048;-61
2023/07/22 06:55:01;;;;;;;9.68;4.63;;;15.80;99.90;;;;;;5084556;28;20054;-61
2023/07/22 06:57:27;;;;;;;7.00;5.10;;;15.90;99.90;;;;;;5087329;28;20048;-62
2023/07/22 06:59:56;;;;;;;8.85;4.93;;;15.90;99.90;;;;;;5084400;28;20044;-62
2023/07/22 07:02:22;;;;;;;6.22;4.50;;;16.00;99.90;;;;;;5087412;28;20131;-62
2023/07/22 07:04:48;;;;;;;8.75;4.90;;;16.10;99.90;;;;;;5077102;28;20036;-62
2023/07/22 07:07:15;;;;;;;6.57;4.75;;;16.30;99.90;;;;;;5080799;28;20174;-62
2023/07/22 07:09:40;;;;;;;7.93;5.00;;;16.40;99.90;;;;;;5065253;28;20048;-62
2023/07/22 07:12:07;;;;;;;6.05;4.40;;;16.40;99.90;;;;;;5082467;28;20059;-62
2023/07/22 07:14:33;;;;;;;8.90;5.20;;;16.40;99.90;;;;;;5076197;28;20048;-61
2023/07/22 07:16:59;;;;;;;8.50;5.15;;;16.50;99.90;;;;;;5076796;28;20066;-62
2023/07/22 07:19:26;;;;;;;9.32;4.43;;;16.60;99.90;;;;;;5080957;28;20157;-62
2023/07/22 07:21:51;;;;;;;7.22;4.47;;;16.80;99.90;;;;;;5066397;28;20045;-62
2023/07/22 07:24:17;;;;;;;5.60;4.50;;;17.00;99.90;;;;;;5064864;28;20044;-62
2023/07/22 07:26:43;;;;;;;9.57;4.55;;;17.30;99.70;;;;;;5067032;28;20120;-62
2023/07/22 07:29:09;;;;;;;7.53;4.53;;;17.50;96.50;;;;;;5074459;28;20173;-62
2023/07/22 07:31:35;;;;;;;7.15;4.00;;;17.70;93.80;;;;;;5068289;28;20123;-62
2023/07/22 07:34:01;;;;;;;10.05;4.50;;;18.00;91.10;;;;;;5063404;28;20506;-63
2023/07/22 07:36:26;;;;;;;8.32;5.00;;;18.20;87.90;;;;;;5076538;28;20111;-62
2023/07/22 07:38:52;;;;;;;5.25;4.35;;;18.30;85.40;;;;;;5084074;28;20127;-62
2023/07/22 07:41:18;;;;;;;6.20;4.78;;;18.30;85.40;;;;;;5081636;28;20052;-62
2023/07/22 07:43:44;;;;;;;9.48;4.30;;;18.40;83.50;;;;;;5071740;28;20045;-62
2023/07/22 07:46:28;;;;;;;7.25;4.80;;;18.40;80.80;;;;;;5082659;28;20054;-62
2023/07/22 07:49:01;;;;;;;5.93;4.15;;;18.40;80.80;;;;;;5083738;28;20079;-62
2023/07/22 07:51:29;;;;;;;9.02;4.50;;;18.40;79.90;;;;;;5078759;28;20048;-63
2023/07/22 07:53:56;;;;;;;7.50;4.80;;;18.30;82.30;;;;;;5084431;28;20068;-63
2023/07/22 07:56:25;;;;;;;6.57;4.55;;;18.30;78.70;;;;;;5087987;28;20466;-62
2023/07/22 07:58:53;;;;;;;7.57;4.53;;;18.20;80.70;;;;;;5083430;28;20040;-63
2023/07/22 08:01:19;;;;;;;4.85;4.30;;;18.20;83.70;;;;;;5064125;28;20043;-63
2023/07/22 08:03:45;;;;;;;8.45;4.72;;;18.20;83.10;;;;;;5069948;28;20091;-62
2023/07/22 08:06:12;;;;;;;10.95;4.85;;;18.30;82.60;;;;;;5082491;28;20044;-62
2023/07/22 08:08:38;;;;;;;5.68;4.25;;;18.40;79.50;;;;;;5082714;28;20048;-62
2023/07/22 08:11:10;;;;;;;7.05;4.82;;;18.40;79.10;;;;;;5079536;28;20482;-63
2023/07/22 08:13:36;;;;;;;7.85;4.30;;;18.40;80.10;;;;;;5089020;28;20059;-62
2023/07/22 08:16:04;;;;;;;4.88;3.78;;;18.50;84.30;;;;;;5089258;28;20036;-62
2023/07/22 08:18:31;;;;;;;5.60;4.13;;;18.60;84.00;;;;;;5088610;28;20486;-62
2023/07/22 08:20:57;;;;;;;6.50;4.05;;;18.60;77.40;;;;;;5089092;28;20417;-62
2023/07/22 08:23:23;;;;;;;6.65;4.30;;;18.60;75.80;;;;;;5090108;28;20084;-62
2023/07/22 08:25:49;;;;;;;7.63;4.85;;;18.60;76.40;;;;;;5088740;28;20076;-63
2023/07/22 08:28:15;;;;;;;7.15;4.68;;;18.70;78.00;;;;;;5089718;28;20107;-62
2023/07/22 08:30:42;;;;;;;6.60;4.70;;;18.80;79.30;;;;;;5087164;28;20036;-62
2023/07/22 08:33:08;;;;;;;7.68;4.30;;;18.80;78.10;;;;;;5087985;28;20147;-62
2023/07/22 08:35:36;;;;;;;8.73;4.60;;;19.00;80.60;;;;;;5089455;28;20130;-62
2023/07/22 08:38:03;;;;;;;5.47;4.00;;;19.10;75.70;;;;;;5076974;28;20087;-61
2023/07/22 08:40:36;;;;;;;5.85;3.90;;;19.20;73.10;;;;;;5072145;28;20040;-62
2023/07/22 08:43:06;;;;;;;4.10;3.70;;;19.20;69.60;;;;;;5084452;28;20036;-62
2023/07/22 08:45:36;;;;;;;3.97;3.42;;;19.20;67.50;;;;;;5081399;28;20129;-62
2023/07/22 08:48:11;;;;;;;;;;;19.30;62.90;;;;;;5075547;28;20082;-62
2023/07/22 08:50:52;;;;;;;4.95;3.33;;;19.40;60.20;;;;;;5076323;28;19928;-62
2023/07/22 08:53:21;;;;;;;3.38;2.95;;;19.50;63.40;;;;;;5083578;28;20126;-62
2023/07/22 08:55:50;;;;;;;3.90;3.50;;;19.80;63.60;;;;;;5070987;28;20058;-62
2023/07/22 08:58:16;;;;;;;4.78;3.65;;;19.80;51.30;;;;;;5072444;28;20047;-62
2023/07/22 09:00:42;;;;;;;4.68;3.50;;;19.80;46.20;;;;;;5068513;28;20040;-62
2023/07/22 09:03:10;;;;;;;4.78;3.30;;;19.70;47.80;;;;;;5079150;28;20032;-62
2023/07/22 09:05:36;;;;;;;7.20;3.17;;;19.60;50.90;;;;;;5073422;28;20457;-62
2023/07/22 09:08:04;;;;;;;3.53;2.90;;;19.50;46.60;;;;;;5084358;28;20074;-62
2023/07/22 09:10:31;;;;;;;3.90;2.95;;;19.40;42.30;;;;;;5073587;28;20047;-61
2023/07/22 09:12:58;;;;;;;5.03;3.28;;;19.30;47.60;;;;;;5082986;28;20044;-62
2023/07/22 09:15:25;;;;;;;5.35;3.47;;;19.20;48.30;;;;;;5070016;28;20040;-62
2023/07/22 09:17:51;;;;;;;3.50;3.17;;;19.10;47.20;;;;;;5087391;28;20312;-62
2023/07/22 09:20:16;;;;;;;4.50;3.03;;;18.90;45.50;;;;;;5070714;28;20432;-62
2023/07/22 09:22:52;;;;;;;4.03;3.38;;;18.80;55.40;;;;;;5087973;28;20508;-62
2023/07/22 09:25:25;;;;;;;3.83;3.03;;;18.70;58.20;;;;;;5087945;28;20989;-62
2023/07/22 09:27:53;;;;;;;3.58;2.85;;;18.80;67.30;;;;;;5088869;28;20047;-62
2023/07/22 09:30:27;;;;;;;3.55;3.03;;;19.00;71.40;;;;;;5086164;28;20101;-62
2023/07/22 09:32:54;;;;;;;7.10;3.35;;;19.20;64.10;;;;;;5076519;28;20121;-62
2023/07/22 09:35:21;;;;;;;2.42;2.13;;;19.50;57.60;;;;;;5081910;28;20032;-62
2023/07/22 09:37:47;;;;;;;2.40;2.22;;;19.80;46.20;;;;;;5088159;28;20048;-62
2023/07/22 09:40:19;;;;;;;2.92;2.30;;;19.70;14.10;;;;;;5082034;28;20039;-62
2023/07/22 09:42:55;;;;;;;2.47;2.00;;;19.70;14.80;;;;;;5088039;28;20055;-61
2023/07/22 09:45:24;;;;;;;3.13;2.10;;;19.60;1.00;;;;;;5071765;28;20101;-62
2023/07/22 09:47:51;;;;;;;1.80;1.70;;;19.40;1.00;;;;;;5075809;28;20040;-63
2023/07/22 09:50:18;;;;;;;1.80;1.50;;;19.30;1.30;;;;;;5088098;28;20040;-62
2023/07/22 09:52:55;;;;;;;2.45;1.88;;;19.10;1.00;;;;;;5087151;28;20480;-62
2023/07/22 09:55:23;;;;;;;1.73;1.65;;;19.00;1.00;;;;;;5086864;28;20032;-63
2023/07/22 09:57:53;;;;;;;2.45;1.50;;;18.90;1.00;;;;;;5086624;28;20056;-62
2023/07/22 10:00:21;;;;;;;3.60;1.70;;;18.80;3.40;;;;;;5081002;28;20574;-62
2023/07/22 10:02:51;;;;;;;2.97;1.73;;;18.80;1.00;;;;;;5085068;28;20123;-63
2023/07/22 10:05:19;;;;;;;2.03;1.55;;;18.70;1.50;;;;;;5085151;28;20044;-62
2023/07/22 10:07:50;;;;;;;3.85;1.88;;;18.60;5.50;;;;;;5087826;28;20044;-62
2023/07/22 10:10:18;;;;;;;3.30;2.20;;;18.60;10.40;;;;;;5084380;28;20047;-62
2023/07/22 10:12:45;;;;;;;3.85;2.53;;;18.50;15.20;;;;;;5087450;28;20036;-63
2023/07/22 10:15:13;;;;;;;4.93;3.22;;;18.50;19.40;;;;;;5076635;28;20040;-62
2023/07/22 10:17:40;;;;;;;4.72;2.97;;;18.40;32.30;;;;;;5082913;28;20054;-63
2023/07/22 10:20:08;;;;;;;3.67;2.60;;;18.30;49.50;;;;;;5088169;28;20499;-62
2023/07/22 10:22:36;;;;;;;4.18;3.05;;;18.30;58.60;;;;;;5082626;28;20052;-63
2023/07/22 10:25:05;;;;;;;6.28;3.28;;;18.20;62.40;;;;;;5091163;28;20422;-62
2023/07/22 10:27:31;;;;;;;5.68;4.03;;;18.10;65.10;;;;;;5064826;28;20052;-62
2023/07/22 10:29:58;;;;;;;4.82;3.47;;;18.10;74.70;;;;;;5067363;28;20056;-63
2023/07/22 10:32:24;;;;;;;5.25;3.63;;;18.10;80.00;;;;;;5077202;28;20048;-62
2023/07/22 10:34:50;;;;;;;4.18;3.35;;;18.00;82.80;;;;;;5082815;28;20508;-62
2023/07/22 10:37:18;;;;;;;7.85;4.07;;;18.00;84.60;;;;;;5079613;28;20032;-63
2023/07/22 10:39:50;;;;;;;5.30;3.38;;;18.10;88.80;;;;;;5080701;28;20102;-63
2023/07/22 10:42:25;;;;;;;5.22;4.05;;;18.00;89.50;;;;;;5079812;28;20426;-63
2023/07/22 10:44:51;;;;;;;7.97;3.75;;;18.00;90.40;;;;;;5064735;28;20098;-62
2023/07/22 10:47:37;;;;;;;7.05;3.75;;;18.00;91.30;;;;;;5074741;28;20141;-62
2023/07/22 10:50:07;;;;;;;6.10;3.65;;;18.10;91.40;;;;;;5077281;28;20193;-62
2023/07/22 10:52:44;;;;;;;5.15;3.80;;;18.10;92.70;;;;;;5082733;28;20036;-62
2023/07/22 10:55:17;;;;;;;6.32;3.95;;;18.10;93.50;;;;;;5079219;28;20526;-63
2023/07/22 10:57:52;;;;;;;5.43;3.72;;;18.20;94.00;;;;;;5071021;28;20052;-63
2023/07/22 11:00:22;;;;;;;7.05;4.18;;;18.20;92.50;;;;;;5081305;28;20159;-63
2023/07/22 11:03:11;;;;;;;5.50;3.65;;;18.20;92.00;;;;;;5083221;28;20040;-62
2023/07/22 11:05:52;;;;;;;5.97;4.30;;;18.20;93.00;;;;;;5079608;28;20044;-62
2023/07/22 11:08:36;;;;;;;6.28;4.25;;;18.10;93.70;;;;;;5082757;28;20052;-62
2023/07/22 11:11:03;;;;;;;6.63;3.78;;;18.10;94.40;;;;;;5073053;28;20386;-62
2023/07/22 11:13:29;;;;;;;6.57;4.30;;;18.10;95.80;;;;;;5088953;28;20515;-63
2023/07/22 11:15:59;;;;;;;5.03;4.15;;;18.00;96.10;;;;;;5081458;28;20085;-62
2023/07/22 11:18:46;;;;;;;;;;;18.00;96.40;;;;;;5088777;28;20043;-62
2023/07/22 11:21:12;;;;;;;4.40;3.63;;;17.90;96.40;;;;;;5074279;28;19924;-62
2023/07/22 11:23:38;;;;;;;5.13;3.42;;;17.90;96.80;;;;;;5078001;28;20048;-63
2023/07/22 11:26:05;;;;;;;4.18;3.75;;;17.80;97.80;;;;;;5071395;28;20067;-62
2023/07/22 11:28:31;;;;;;;3.92;3.30;;;17.80;99.20;;;;;;5082141;28;20363;-62
2023/07/22 11:30:58;;;;;;;4.47;4.07;;;17.80;99.90;;;;;;5075259;28;20044;-62
2023/07/22 11:33:24;;;;;;;3.65;3.28;;;17.80;99.90;;;;;;5084907;28;20044;-62
2023/07/22 11:35:50;;;;;;;9.30;3.35;;;17.70;99.90;;;;;;5071470;28;20105;-63
2023/07/22 11:38:16;;;;;;;5.15;3.30;;;17.70;99.90;;;;;;5092683;28;20056;-63
2023/07/22 11:40:41;;;;;;;3.95;3.60;;;17.70;99.90;;;;;;5076262;28;20051;-63
2023/07/22 11:43:07;;;;;;;5.53;3.75;;;17.60;99.90;;;;;;5074268;28;20436;-63
2023/07/22 11:45:33;;;;;;;4.95;3.90;;;17.60;99.90;;;;;;5072413;28;20573;-63
2023/07/22 11:47:59;;;;;;;3.50;3.20;;;17.60;99.90;;;;;;5077059;28;20086;-63
2023/07/22 11:50:35;;;;;;;4.60;3.38;;;17.60;99.90;;;;;;5068588;28;20048;-64
2023/07/22 11:53:01;;;;;;;5.95;3.45;;;17.60;99.90;;;;;;5077338;28;20478;-64
2023/07/22 11:55:27;;;;;;;7.38;4.05;;;17.60;99.90;;;;;;5070310;28;20166;-64
2023/07/22 11:57:56;;;;;;;3.92;3.17;;;17.50;99.90;;;;;;5073876;28;20063;-64
2023/07/22 12:00:21;;;;;;;4.47;3.15;;;17.50;99.90;;;;;;5069115;28;20066;-64
2023/07/22 12:02:47;;;;;;;4.07;3.47;;;17.40;99.90;;;;;;5079306;28;20052;-64
2023/07/22 12:05:21;;;;;;;8.13;4.05;;;17.40;99.90;;;;;;5070063;28;20054;-64
2023/07/22 12:07:46;;;;;;;3.08;2.75;;;17.30;99.90;;;;;;5068196;28;20055;-65
2023/07/22 12:10:13;;;;;;;3.80;3.20;;;17.30;99.90;;;;;;5069297;28;20029;-65
2023/07/22 12:12:44;;;;;;;4.88;3.42;;;17.30;99.90;;;;;;5087283;28;20525;-64
2023/07/22 12:15:13;;;;;;;7.32;3.25;;;17.30;99.90;;;;;;5087564;28;20129;-64
2023/07/22 12:18:00;;;;;;;4.13;3.30;;;17.30;99.90;;;;;;5088197;28;20467;-64
2023/07/22 12:20:28;;;;;;;5.22;4.05;;;17.30;99.90;;;;;;5089709;28;20405;-65
2023/07/22 12:22:54;;;;;;;5.70;3.72;;;17.30;99.90;;;;;;5080286;28;20045;-65
2023/07/22 12:25:20;;;;;;;4.65;3.22;;;17.30;99.90;;;;;;5078597;28;20051;-66
2023/07/22 12:27:46;;;;;;;4.90;3.28;;;17.30;99.90;;;;;;5086816;28;20056;-65
2023/07/22 12:30:12;;;;;;;5.03;3.38;;;17.40;99.90;;;;;;5090376;28;20094;-65
2023/07/22 12:32:38;;;;;;;4.85;3.53;;;17.30;99.90;;;;;;5086127;28;20043;-66
2023/07/22 12:35:05;;;;;;;6.43;3.28;;;17.30;99.90;;;;;;5089898;28;20048;-66
2023/07/22 12:37:30;;;;;;;5.38;4.35;;;17.40;99.90;;;;;;5070753;28;20115;-66
2023/07/22 12:39:57;;;;;;;4.60;3.65;;;17.40;99.90;;;;;;5086406;28;20110;-66
2023/07/22 12:42:22;;;;;;;5.32;4.18;;;17.40;99.90;;;;;;5087578;28;20040;-67
2023/07/22 12:44:48;;;;;;;9.38;4.50;;;17.50;99.90;;;;;;5072325;28;20059;-66
2023/07/22 12:47:14;;;;;;;5.93;4.30;;;17.50;99.90;;;;;;5071136;28;20126;-66
2023/07/22 12:49:40;;;;;;;10.07;4.22;;;17.40;99.90;;;;;;5086351;28;20040;-66
2023/07/22 12:52:08;;;;;;;8.65;4.38;;;17.50;99.90;;;;;;5089368;28;20082;-66